sensor_id;sensor_type;location;lat;lon;timestamp;P1;durP1;ratioP1;P2;durP2;ratioP2
71303;SDS011;59091;47.446;19.148;2024-02-04T00:01:41;1.55;;;1.45;;
71303;SDS011;59091;47.446;19.148;2024-02-04T00:04:07;3.08;;;1.33;;
71303;SDS011;59091;47.446;19.148;2024-02-04T00:06:33;1.63;;;1.30;;
71303;SDS011;59091;47.446;19.148;2024-02-04T00:08:58;1.40;;;1.30;;
71303;SDS011;59091;47.446;19.148;2024-02-04T00:11:24;3.65;;;1.08;;
71303;SDS011;59091;47.446;19.148;2024-02-04T00:13:49;3.83;;;1.60;;
71303;SDS011;59091;47.446;19.148;2024-02-04T00:16:15;2.45;;;1.30;;
71303;SDS011;59091;47.446;19.148;2024-02-04T00:18:40;1.63;;;1.50;;
71303;SDS011;59091;47.446;19.148;2024-02-04T00:21:05;1.40;;;1.30;;
71303;SDS011;59091;47.446;19.148;2024-02-04T00:23:31;3.95;;;1.40;;
71303;SDS011;59091;47.446;19.148;2024-02-04T00:25:56;1.90;;;1.20;;
71303;SDS011;59091;47.446;19.148;2024-02-04T00:28:22;1.38;;;1.17;;
71303;SDS011;59091;47.446;19.148;2024-02-04T00:30:47;3.20;;;1.23;;
71303;SDS011;59091;47.446;19.148;2024-02-04T00:33:14;1.30;;;1.20;;
71303;SDS011;59091;47.446;19.148;2024-02-04T00:35:41;1.45;;;1.10;;
71303;SDS011;59091;47.446;19.148;2024-02-04T00:38:06;1.30;;;1.20;;
71303;SDS011;59091;47.446;19.148;2024-02-04T00:40:33;1.17;;;1.17;;
71303;SDS011;59091;47.446;19.148;2024-02-04T00:42:59;1.20;;;1.10;;
71303;SDS011;59091;47.446;19.148;2024-02-04T00:45:24;1.15;;;1.13;;
71303;SDS011;59091;47.446;19.148;2024-02-04T00:47:49;1.10;;;1.10;;
71303;SDS011;59091;47.446;19.148;2024-02-04T00:50:15;1.75;;;1.10;;
71303;SDS011;59091;47.446;19.148;2024-02-04T00:52:40;1.30;;;1.10;;
71303;SDS011;59091;47.446;19.148;2024-02-04T00:55:06;1.67;;;1.25;;
71303;SDS011;59091;47.446;19.148;2024-02-04T00:57:31;1.17;;;1.10;;
71303;SDS011;59091;47.446;19.148;2024-02-04T00:59:57;1.38;;;1.08;;
71303;SDS011;59091;47.446;19.148;2024-02-04T01:02:22;1.25;;;1.17;;
71303;SDS011;59091;47.446;19.148;2024-02-04T01:04:48;1.30;;;1.20;;
71303;SDS011;59091;47.446;19.148;2024-02-04T01:07:15;0.90;;;0.90;;
71303;SDS011;59091;47.446;19.148;2024-02-04T01:09:40;2.33;;;1.30;;
71303;SDS011;59091;47.446;19.148;2024-02-04T01:12:07;1.23;;;1.15;;
71303;SDS011;59091;47.446;19.148;2024-02-04T01:14:33;0.93;;;0.93;;
71303;SDS011;59091;47.446;19.148;2024-02-04T01:16:58;1.73;;;1.30;;
71303;SDS011;59091;47.446;19.148;2024-02-04T01:19:23;1.00;;;0.90;;
71303;SDS011;59091;47.446;19.148;2024-02-04T01:21:49;1.00;;;1.00;;
71303;SDS011;59091;47.446;19.148;2024-02-04T01:24:14;1.35;;;1.23;;
71303;SDS011;59091;47.446;19.148;2024-02-04T01:26:40;1.15;;;1.08;;
71303;SDS011;59091;47.446;19.148;2024-02-04T01:29:05;1.40;;;1.30;;
71303;SDS011;59091;47.446;19.148;2024-02-04T01:31:30;1.25;;;1.20;;
71303;SDS011;59091;47.446;19.148;2024-02-04T01:33:56;1.00;;;1.00;;
71303;SDS011;59091;47.446;19.148;2024-02-04T01:36:21;1.90;;;1.30;;
71303;SDS011;59091;47.446;19.148;2024-02-04T01:38:46;1.20;;;1.10;;
71303;SDS011;59091;47.446;19.148;2024-02-04T01:41:12;1.20;;;1.10;;
71303;SDS011;59091;47.446;19.148;2024-02-04T01:43:37;1.00;;;1.00;;
71303;SDS011;59091;47.446;19.148;2024-02-04T01:46:03;1.08;;;1.08;;
71303;SDS011;59091;47.446;19.148;2024-02-04T01:48:28;1.40;;;1.30;;
71303;SDS011;59091;47.446;19.148;2024-02-04T01:50:54;1.83;;;1.20;;
71303;SDS011;59091;47.446;19.148;2024-02-04T01:53:23;1.23;;;1.13;;
71303;SDS011;59091;47.446;19.148;2024-02-04T01:55:52;1.27;;;1.20;;
71303;SDS011;59091;47.446;19.148;2024-02-04T01:58:20;2.25;;;1.15;;
71303;SDS011;59091;47.446;19.148;2024-02-04T02:00:45;1.52;;;1.10;;
71303;SDS011;59091;47.446;19.148;2024-02-04T02:03:11;1.38;;;1.27;;
71303;SDS011;59091;47.446;19.148;2024-02-04T02:05:37;1.38;;;1.30;;
71303;SDS011;59091;47.446;19.148;2024-02-04T02:08:05;1.33;;;1.23;;
71303;SDS011;59091;47.446;19.148;2024-02-04T02:10:31;1.50;;;1.40;;
71303;SDS011;59091;47.446;19.148;2024-02-04T02:13:00;1.83;;;1.45;;
71303;SDS011;59091;47.446;19.148;2024-02-04T02:15:40;1.30;;;1.13;;
71303;SDS011;59091;47.446;19.148;2024-02-04T02:18:12;1.20;;;1.20;;
71303;SDS011;59091;47.446;19.148;2024-02-04T02:23:34;2.35;;;1.40;;
71303;SDS011;59091;47.446;19.148;2024-02-04T02:26:02;1.38;;;1.27;;
71303;SDS011;59091;47.446;19.148;2024-02-04T02:28:28;1.55;;;1.45;;
71303;SDS011;59091;47.446;19.148;2024-02-04T02:30:53;1.52;;;1.42;;
71303;SDS011;59091;47.446;19.148;2024-02-04T02:33:19;1.45;;;1.35;;
71303;SDS011;59091;47.446;19.148;2024-02-04T02:35:44;1.60;;;1.48;;
71303;SDS011;59091;47.446;19.148;2024-02-04T02:38:33;2.15;;;1.95;;
71303;SDS011;59091;47.446;19.148;2024-02-04T02:41:08;1.60;;;1.50;;
71303;SDS011;59091;47.446;19.148;2024-02-04T02:43:35;1.77;;;1.50;;
71303;SDS011;59091;47.446;19.148;2024-02-04T02:46:06;1.70;;;1.50;;
71303;SDS011;59091;47.446;19.148;2024-02-04T02:48:32;1.60;;;1.50;;
71303;SDS011;59091;47.446;19.148;2024-02-04T02:50:58;1.50;;;1.40;;
71303;SDS011;59091;47.446;19.148;2024-02-04T02:53:23;1.60;;;1.50;;
71303;SDS011;59091;47.446;19.148;2024-02-04T02:55:48;1.98;;;1.30;;
71303;SDS011;59091;47.446;19.148;2024-02-04T02:58:14;1.85;;;1.70;;
71303;SDS011;59091;47.446;19.148;2024-02-04T03:00:39;1.70;;;1.60;;
71303;SDS011;59091;47.446;19.148;2024-02-04T03:03:05;1.70;;;1.60;;
71303;SDS011;59091;47.446;19.148;2024-02-04T03:05:30;2.28;;;1.80;;
71303;SDS011;59091;47.446;19.148;2024-02-04T03:07:56;4.32;;;1.67;;
71303;SDS011;59091;47.446;19.148;2024-02-04T03:10:22;1.70;;;1.60;;
71303;SDS011;59091;47.446;19.148;2024-02-04T03:12:47;1.90;;;1.80;;
71303;SDS011;59091;47.446;19.148;2024-02-04T03:15:13;2.00;;;1.85;;
71303;SDS011;59091;47.446;19.148;2024-02-04T03:17:38;2.20;;;2.00;;
71303;SDS011;59091;47.446;19.148;2024-02-04T03:20:04;3.47;;;2.20;;
71303;SDS011;59091;47.446;19.148;2024-02-04T03:22:29;1.95;;;1.80;;
71303;SDS011;59091;47.446;19.148;2024-02-04T03:24:55;2.58;;;1.92;;
71303;SDS011;59091;47.446;19.148;2024-02-04T03:27:20;1.90;;;1.80;;
71303;SDS011;59091;47.446;19.148;2024-02-04T03:29:46;2.55;;;2.08;;
71303;SDS011;59091;47.446;19.148;2024-02-04T03:32:11;2.40;;;2.20;;
71303;SDS011;59091;47.446;19.148;2024-02-04T03:34:36;2.05;;;1.90;;
71303;SDS011;59091;47.446;19.148;2024-02-04T03:37:02;2.13;;;1.90;;
71303;SDS011;59091;47.446;19.148;2024-02-04T03:39:28;2.38;;;1.83;;
71303;SDS011;59091;47.446;19.148;2024-02-04T03:41:53;3.72;;;1.80;;
71303;SDS011;59091;47.446;19.148;2024-02-04T03:44:19;2.40;;;2.20;;
71303;SDS011;59091;47.446;19.148;2024-02-04T03:46:47;2.30;;;2.10;;
71303;SDS011;59091;47.446;19.148;2024-02-04T03:49:13;2.47;;;2.00;;
71303;SDS011;59091;47.446;19.148;2024-02-04T03:51:39;1.77;;;1.67;;
71303;SDS011;59091;47.446;19.148;2024-02-04T03:54:04;2.15;;;2.05;;
71303;SDS011;59091;47.446;19.148;2024-02-04T03:56:30;2.20;;;2.00;;
71303;SDS011;59091;47.446;19.148;2024-02-04T03:58:55;1.85;;;1.75;;
71303;SDS011;59091;47.446;19.148;2024-02-04T04:01:21;2.50;;;2.05;;
71303;SDS011;59091;47.446;19.148;2024-02-04T04:03:46;2.20;;;1.92;;
71303;SDS011;59091;47.446;19.148;2024-02-04T04:06:12;2.10;;;1.90;;
71303;SDS011;59091;47.446;19.148;2024-02-04T04:08:37;1.63;;;1.52;;
71303;SDS011;59091;47.446;19.148;2024-02-04T04:11:03;4.47;;;2.17;;
71303;SDS011;59091;47.446;19.148;2024-02-04T04:13:29;2.10;;;1.90;;
71303;SDS011;59091;47.446;19.148;2024-02-04T04:15:54;2.22;;;2.03;;
71303;SDS011;59091;47.446;19.148;2024-02-04T04:18:20;2.35;;;2.10;;
71303;SDS011;59091;47.446;19.148;2024-02-04T04:20:45;2.00;;;1.83;;
71303;SDS011;59091;47.446;19.148;2024-02-04T04:23:12;2.00;;;1.90;;
71303;SDS011;59091;47.446;19.148;2024-02-04T04:25:37;1.80;;;1.70;;
71303;SDS011;59091;47.446;19.148;2024-02-04T04:28:03;1.90;;;1.80;;
71303;SDS011;59091;47.446;19.148;2024-02-04T04:30:28;2.25;;;1.77;;
71303;SDS011;59091;47.446;19.148;2024-02-04T04:32:54;1.98;;;1.88;;
71303;SDS011;59091;47.446;19.148;2024-02-04T04:35:21;2.95;;;1.65;;
71303;SDS011;59091;47.446;19.148;2024-02-04T04:37:46;1.75;;;1.65;;
71303;SDS011;59091;47.446;19.148;2024-02-04T04:40:12;2.63;;;1.80;;
71303;SDS011;59091;47.446;19.148;2024-02-04T04:42:37;1.90;;;1.80;;
71303;SDS011;59091;47.446;19.148;2024-02-04T04:45:03;1.83;;;1.73;;
71303;SDS011;59091;47.446;19.148;2024-02-04T04:47:29;1.90;;;1.75;;
71303;SDS011;59091;47.446;19.148;2024-02-04T04:49:54;1.88;;;1.77;;
71303;SDS011;59091;47.446;19.148;2024-02-04T04:52:20;3.67;;;1.70;;
71303;SDS011;59091;47.446;19.148;2024-02-04T04:54:45;1.80;;;1.70;;
71303;SDS011;59091;47.446;19.148;2024-02-04T04:57:10;1.88;;;1.77;;
71303;SDS011;59091;47.446;19.148;2024-02-04T04:59:36;1.80;;;1.70;;
71303;SDS011;59091;47.446;19.148;2024-02-04T05:02:03;1.92;;;1.83;;
71303;SDS011;59091;47.446;19.148;2024-02-04T05:04:31;2.25;;;2.05;;
71303;SDS011;59091;47.446;19.148;2024-02-04T05:06:56;2.20;;;2.00;;
71303;SDS011;59091;47.446;19.148;2024-02-04T05:09:21;2.10;;;2.00;;
71303;SDS011;59091;47.446;19.148;2024-02-04T05:11:47;2.88;;;1.98;;
71303;SDS011;59091;47.446;19.148;2024-02-04T05:14:12;1.77;;;1.55;;
71303;SDS011;59091;47.446;19.148;2024-02-04T05:16:38;1.88;;;1.77;;
71303;SDS011;59091;47.446;19.148;2024-02-04T05:19:03;2.15;;;1.95;;
71303;SDS011;59091;47.446;19.148;2024-02-04T05:21:28;1.83;;;1.73;;
71303;SDS011;59091;47.446;19.148;2024-02-04T05:23:54;2.33;;;2.15;;
71303;SDS011;59091;47.446;19.148;2024-02-04T05:26:19;2.08;;;1.90;;
71303;SDS011;59091;47.446;19.148;2024-02-04T05:28:45;1.90;;;1.80;;
71303;SDS011;59091;47.446;19.148;2024-02-04T05:31:10;1.90;;;1.80;;
71303;SDS011;59091;47.446;19.148;2024-02-04T05:33:36;1.90;;;1.77;;
71303;SDS011;59091;47.446;19.148;2024-02-04T05:36:01;2.00;;;1.90;;
71303;SDS011;59091;47.446;19.148;2024-02-04T05:38:27;1.90;;;1.70;;
71303;SDS011;59091;47.446;19.148;2024-02-04T05:40:52;2.10;;;1.80;;
71303;SDS011;59091;47.446;19.148;2024-02-04T05:43:18;3.13;;;1.70;;
71303;SDS011;59091;47.446;19.148;2024-02-04T05:45:43;2.10;;;1.60;;
71303;SDS011;59091;47.446;19.148;2024-02-04T05:48:09;1.70;;;1.60;;
71303;SDS011;59091;47.446;19.148;2024-02-04T05:50:34;1.70;;;1.60;;
71303;SDS011;59091;47.446;19.148;2024-02-04T05:53:00;1.90;;;1.80;;
71303;SDS011;59091;47.446;19.148;2024-02-04T05:55:25;2.13;;;2.03;;
71303;SDS011;59091;47.446;19.148;2024-02-04T05:57:51;3.22;;;2.60;;
71303;SDS011;59091;47.446;19.148;2024-02-04T06:00:16;4.78;;;2.90;;
71303;SDS011;59091;47.446;19.148;2024-02-04T06:02:42;3.92;;;2.85;;
71303;SDS011;59091;47.446;19.148;2024-02-04T06:05:09;5.03;;;2.95;;
71303;SDS011;59091;47.446;19.148;2024-02-04T06:07:34;3.80;;;3.10;;
71303;SDS011;59091;47.446;19.148;2024-02-04T06:10:00;3.55;;;3.10;;
71303;SDS011;59091;47.446;19.148;2024-02-04T06:12:28;3.60;;;3.00;;
71303;SDS011;59091;47.446;19.148;2024-02-04T06:14:53;3.53;;;3.20;;
71303;SDS011;59091;47.446;19.148;2024-02-04T06:17:19;3.10;;;2.75;;
71303;SDS011;59091;47.446;19.148;2024-02-04T06:19:44;2.92;;;2.72;;
71303;SDS011;59091;47.446;19.148;2024-02-04T06:22:10;3.35;;;2.80;;
71303;SDS011;59091;47.446;19.148;2024-02-04T06:24:35;2.95;;;2.75;;
71303;SDS011;59091;47.446;19.148;2024-02-04T06:27:02;2.85;;;2.50;;
71303;SDS011;59091;47.446;19.148;2024-02-04T06:29:28;3.10;;;2.80;;
71303;SDS011;59091;47.446;19.148;2024-02-04T06:31:53;3.10;;;2.78;;
71303;SDS011;59091;47.446;19.148;2024-02-04T06:34:19;4.82;;;2.70;;
71303;SDS011;59091;47.446;19.148;2024-02-04T06:36:44;4.15;;;3.13;;
71303;SDS011;59091;47.446;19.148;2024-02-04T06:39:10;4.35;;;3.95;;
71303;SDS011;59091;47.446;19.148;2024-02-04T06:41:35;3.47;;;3.17;;
71303;SDS011;59091;47.446;19.148;2024-02-04T06:44:02;3.20;;;2.90;;
71303;SDS011;59091;47.446;19.148;2024-02-04T06:46:28;4.53;;;3.30;;
71303;SDS011;59091;47.446;19.148;2024-02-04T06:48:54;3.85;;;3.40;;
71303;SDS011;59091;47.446;19.148;2024-02-04T06:51:19;9.57;;;3.33;;
71303;SDS011;59091;47.446;19.148;2024-02-04T06:53:45;4.32;;;3.40;;
71303;SDS011;59091;47.446;19.148;2024-02-04T06:56:11;5.93;;;3.00;;
71303;SDS011;59091;47.446;19.148;2024-02-04T06:58:37;5.07;;;4.57;;
71303;SDS011;59091;47.446;19.148;2024-02-04T07:01:03;4.72;;;4.30;;
71303;SDS011;59091;47.446;19.148;2024-02-04T07:03:29;4.55;;;4.15;;
71303;SDS011;59091;47.446;19.148;2024-02-04T07:05:55;5.82;;;4.57;;
71303;SDS011;59091;47.446;19.148;2024-02-04T07:08:20;7.35;;;5.07;;
71303;SDS011;59091;47.446;19.148;2024-02-04T07:10:46;4.93;;;4.43;;
71303;SDS011;59091;47.446;19.148;2024-02-04T07:13:11;4.28;;;2.55;;
71303;SDS011;59091;47.446;19.148;2024-02-04T07:15:37;6.28;;;2.90;;
71303;SDS011;59091;47.446;19.148;2024-02-04T07:18:03;4.70;;;3.85;;
71303;SDS011;59091;47.446;19.148;2024-02-04T07:20:29;6.57;;;5.88;;
71303;SDS011;59091;47.446;19.148;2024-02-04T07:22:54;3.42;;;3.13;;
71303;SDS011;59091;47.446;19.148;2024-02-04T07:25:20;2.58;;;2.33;;
71303;SDS011;59091;47.446;19.148;2024-02-04T07:27:46;4.78;;;2.13;;
71303;SDS011;59091;47.446;19.148;2024-02-04T07:30:11;2.55;;;2.30;;
71303;SDS011;59091;47.446;19.148;2024-02-04T07:32:37;1.65;;;1.55;;
71303;SDS011;59091;47.446;19.148;2024-02-04T07:35:02;3.85;;;1.80;;
71303;SDS011;59091;47.446;19.148;2024-02-04T07:37:28;1.70;;;1.60;;
71303;SDS011;59091;47.446;19.148;2024-02-04T07:39:53;1.90;;;1.80;;
71303;SDS011;59091;47.446;19.148;2024-02-04T07:42:19;2.10;;;1.60;;
71303;SDS011;59091;47.446;19.148;2024-02-04T07:44:44;1.52;;;1.40;;
71303;SDS011;59091;47.446;19.148;2024-02-04T07:47:10;1.73;;;1.63;;
71303;SDS011;59091;47.446;19.148;2024-02-04T07:49:35;1.48;;;1.38;;
71303;SDS011;59091;47.446;19.148;2024-02-04T07:52:00;1.60;;;1.50;;
71303;SDS011;59091;47.446;19.148;2024-02-04T07:54:26;1.88;;;1.60;;
71303;SDS011;59091;47.446;19.148;2024-02-04T07:56:51;1.50;;;1.40;;
71303;SDS011;59091;47.446;19.148;2024-02-04T07:59:16;1.60;;;1.50;;
71303;SDS011;59091;47.446;19.148;2024-02-04T08:01:42;1.67;;;1.52;;
71303;SDS011;59091;47.446;19.148;2024-02-04T08:04:07;1.40;;;1.25;;
71303;SDS011;59091;47.446;19.148;2024-02-04T08:06:35;1.95;;;1.65;;
71303;SDS011;59091;47.446;19.148;2024-02-04T08:09:02;2.47;;;1.45;;
71303;SDS011;59091;47.446;19.148;2024-02-04T08:11:28;1.45;;;1.35;;
71303;SDS011;59091;47.446;19.148;2024-02-04T08:13:54;1.30;;;1.20;;
71303;SDS011;59091;47.446;19.148;2024-02-04T08:16:19;2.67;;;1.40;;
71303;SDS011;59091;47.446;19.148;2024-02-04T08:18:45;1.30;;;1.30;;
71303;SDS011;59091;47.446;19.148;2024-02-04T08:21:11;1.20;;;1.20;;
71303;SDS011;59091;47.446;19.148;2024-02-04T08:23:37;2.78;;;1.70;;
71303;SDS011;59091;47.446;19.148;2024-02-04T08:26:02;1.50;;;1.40;;
71303;SDS011;59091;47.446;19.148;2024-02-04T08:28:28;1.10;;;1.00;;
71303;SDS011;59091;47.446;19.148;2024-02-04T08:30:54;1.08;;;1.08;;
71303;SDS011;59091;47.446;19.148;2024-02-04T08:33:20;1.20;;;1.10;;
71303;SDS011;59091;47.446;19.148;2024-02-04T08:35:46;1.40;;;1.30;;
71303;SDS011;59091;47.446;19.148;2024-02-04T08:38:11;1.35;;;1.25;;
71303;SDS011;59091;47.446;19.148;2024-02-04T08:40:36;2.70;;;1.63;;
71303;SDS011;59091;47.446;19.148;2024-02-04T08:43:02;1.60;;;1.50;;
71303;SDS011;59091;47.446;19.148;2024-02-04T08:45:27;1.48;;;1.38;;
71303;SDS011;59091;47.446;19.148;2024-02-04T08:47:53;3.65;;;1.75;;
71303;SDS011;59091;47.446;19.148;2024-02-04T08:50:19;2.63;;;1.40;;
71303;SDS011;59091;47.446;19.148;2024-02-04T08:52:45;1.38;;;1.27;;
71303;SDS011;59091;47.446;19.148;2024-02-04T08:55:10;1.83;;;1.30;;
71303;SDS011;59091;47.446;19.148;2024-02-04T08:57:36;1.42;;;1.33;;
71303;SDS011;59091;47.446;19.148;2024-02-04T09:00:01;1.45;;;1.35;;
71303;SDS011;59091;47.446;19.148;2024-02-04T09:02:27;3.05;;;1.45;;
71303;SDS011;59091;47.446;19.148;2024-02-04T09:04:52;4.07;;;1.83;;
71303;SDS011;59091;47.446;19.148;2024-02-04T09:07:19;2.47;;;1.55;;
71303;SDS011;59091;47.446;19.148;2024-02-04T09:09:45;1.70;;;1.33;;
71303;SDS011;59091;47.446;19.148;2024-02-04T09:12:10;1.63;;;1.52;;
71303;SDS011;59091;47.446;19.148;2024-02-04T09:14:36;1.65;;;1.33;;
71303;SDS011;59091;47.446;19.148;2024-02-04T09:17:02;2.03;;;1.30;;
71303;SDS011;59091;47.446;19.148;2024-02-04T09:19:29;4.72;;;1.20;;
71303;SDS011;59091;47.446;19.148;2024-02-04T09:21:56;1.20;;;1.20;;
71303;SDS011;59091;47.446;19.148;2024-02-04T09:24:21;1.35;;;1.25;;
71303;SDS011;59091;47.446;19.148;2024-02-04T09:26:47;1.98;;;1.20;;
71303;SDS011;59091;47.446;19.148;2024-02-04T09:29:14;1.20;;;1.00;;
71303;SDS011;59091;47.446;19.148;2024-02-04T09:31:39;2.40;;;1.15;;
71303;SDS011;59091;47.446;19.148;2024-02-04T09:34:05;1.70;;;1.60;;
71303;SDS011;59091;47.446;19.148;2024-02-04T09:36:30;1.15;;;1.15;;
71303;SDS011;59091;47.446;19.148;2024-02-04T09:38:55;1.30;;;1.20;;
71303;SDS011;59091;47.446;19.148;2024-02-04T09:41:21;1.30;;;1.20;;
71303;SDS011;59091;47.446;19.148;2024-02-04T09:43:51;1.20;;;1.05;;
71303;SDS011;59091;47.446;19.148;2024-02-04T09:46:17;1.35;;;1.25;;
71303;SDS011;59091;47.446;19.148;2024-02-04T09:48:44;2.08;;;1.48;;
71303;SDS011;59091;47.446;19.148;2024-02-04T09:51:10;2.55;;;1.10;;
71303;SDS011;59091;47.446;19.148;2024-02-04T09:53:36;1.35;;;1.00;;
71303;SDS011;59091;47.446;19.148;2024-02-04T09:56:08;0.88;;;0.88;;
71303;SDS011;59091;47.446;19.148;2024-02-04T09:58:34;1.35;;;1.10;;
71303;SDS011;59091;47.446;19.148;2024-02-04T10:01:00;1.35;;;1.08;;
71303;SDS011;59091;47.446;19.148;2024-02-04T10:03:25;2.40;;;1.23;;
71303;SDS011;59091;47.446;19.148;2024-02-04T10:05:51;1.48;;;1.00;;
71303;SDS011;59091;47.446;19.148;2024-02-04T10:08:17;1.88;;;0.90;;
71303;SDS011;59091;47.446;19.148;2024-02-04T10:10:42;1.70;;;0.93;;
71303;SDS011;59091;47.446;19.148;2024-02-04T10:13:08;1.45;;;1.17;;
71303;SDS011;59091;47.446;19.148;2024-02-04T10:15:34;1.25;;;1.13;;
71303;SDS011;59091;47.446;19.148;2024-02-04T10:18:02;2.58;;;1.20;;
71303;SDS011;59091;47.446;19.148;2024-02-04T10:20:29;1.20;;;1.10;;
71303;SDS011;59091;47.446;19.148;2024-02-04T10:22:55;0.90;;;0.90;;
71303;SDS011;59091;47.446;19.148;2024-02-04T10:25:20;1.10;;;0.95;;
71303;SDS011;59091;47.446;19.148;2024-02-04T10:27:46;1.08;;;0.98;;
71303;SDS011;59091;47.446;19.148;2024-02-04T10:30:13;1.00;;;1.00;;
71303;SDS011;59091;47.446;19.148;2024-02-04T10:32:39;1.55;;;0.80;;
71303;SDS011;59091;47.446;19.148;2024-02-04T10:35:07;1.13;;;0.90;;
71303;SDS011;59091;47.446;19.148;2024-02-04T10:37:33;3.92;;;1.13;;
71303;SDS011;59091;47.446;19.148;2024-02-04T10:39:59;0.90;;;0.90;;
71303;SDS011;59091;47.446;19.148;2024-02-04T10:42:25;0.90;;;0.82;;
71303;SDS011;59091;47.446;19.148;2024-02-04T10:44:52;1.80;;;1.00;;
71303;SDS011;59091;47.446;19.148;2024-02-04T10:47:21;1.08;;;1.08;;
71303;SDS011;59091;47.446;19.148;2024-02-04T10:49:51;0.80;;;0.80;;
71303;SDS011;59091;47.446;19.148;2024-02-04T10:52:20;2.17;;;0.90;;
71303;SDS011;59091;47.446;19.148;2024-02-04T10:54:48;1.08;;;1.00;;
71303;SDS011;59091;47.446;19.148;2024-02-04T10:57:16;0.90;;;0.90;;
71303;SDS011;59091;47.446;19.148;2024-02-04T10:59:47;1.08;;;0.88;;
71303;SDS011;59091;47.446;19.148;2024-02-04T11:02:13;1.42;;;0.82;;
71303;SDS011;59091;47.446;19.148;2024-02-04T11:04:41;0.80;;;0.80;;
71303;SDS011;59091;47.446;19.148;2024-02-04T11:07:07;1.02;;;0.93;;
71303;SDS011;59091;47.446;19.148;2024-02-04T11:09:35;2.25;;;1.00;;
71303;SDS011;59091;47.446;19.148;2024-02-04T11:12:01;1.90;;;0.88;;
71303;SDS011;59091;47.446;19.148;2024-02-04T11:14:32;0.80;;;0.80;;
71303;SDS011;59091;47.446;19.148;2024-02-04T11:28:04;1.05;;;0.95;;
71303;SDS011;59091;47.446;19.148;2024-02-04T11:30:33;0.73;;;0.73;;
71303;SDS011;59091;47.446;19.148;2024-02-04T11:33:01;1.42;;;0.95;;
71303;SDS011;59091;47.446;19.148;2024-02-04T11:35:28;0.80;;;0.80;;
71303;SDS011;59091;47.446;19.148;2024-02-04T11:37:54;1.42;;;0.85;;
71303;SDS011;59091;47.446;19.148;2024-02-04T11:40:20;2.40;;;0.90;;
71303;SDS011;59091;47.446;19.148;2024-02-04T11:42:48;1.05;;;0.77;;
71303;SDS011;59091;47.446;19.148;2024-02-04T11:45:14;1.23;;;1.02;;
71303;SDS011;59091;47.446;19.148;2024-02-04T11:47:39;2.42;;;1.70;;
71303;SDS011;59091;47.446;19.148;2024-02-04T11:50:05;1.17;;;1.08;;
71303;SDS011;59091;47.446;19.148;2024-02-04T11:52:32;3.08;;;0.93;;
71303;SDS011;59091;47.446;19.148;2024-02-04T11:54:57;1.42;;;1.33;;
71303;SDS011;59091;47.446;19.148;2024-02-04T11:57:23;0.80;;;0.80;;
71303;SDS011;59091;47.446;19.148;2024-02-04T11:59:53;1.10;;;1.10;;
71303;SDS011;59091;47.446;19.148;2024-02-04T12:02:23;1.10;;;1.10;;
71303;SDS011;59091;47.446;19.148;2024-02-04T12:04:48;0.80;;;0.80;;
71303;SDS011;59091;47.446;19.148;2024-02-04T12:07:14;1.95;;;1.00;;
71303;SDS011;59091;47.446;19.148;2024-02-04T12:09:40;3.25;;;1.50;;
71303;SDS011;59091;47.446;19.148;2024-02-04T12:12:06;2.15;;;1.60;;
71303;SDS011;59091;47.446;19.148;2024-02-04T12:14:32;2.17;;;1.67;;
71303;SDS011;59091;47.446;19.148;2024-02-04T12:17:05;1.70;;;1.30;;
71303;SDS011;59091;47.446;19.148;2024-02-04T12:19:32;1.15;;;1.08;;
71303;SDS011;59091;47.446;19.148;2024-02-04T12:21:57;2.88;;;1.00;;
71303;SDS011;59091;47.446;19.148;2024-02-04T12:24:23;0.82;;;0.80;;
71303;SDS011;59091;47.446;19.148;2024-02-04T12:26:48;0.88;;;0.88;;
71303;SDS011;59091;47.446;19.148;2024-02-04T12:29:14;1.00;;;0.90;;
71303;SDS011;59091;47.446;19.148;2024-02-04T12:31:39;1.17;;;0.70;;
71303;SDS011;59091;47.446;19.148;2024-02-04T12:34:05;1.48;;;0.90;;
71303;SDS011;59091;47.446;19.148;2024-02-04T12:36:33;0.80;;;0.80;;
71303;SDS011;59091;47.446;19.148;2024-02-04T12:38:59;2.08;;;0.73;;
71303;SDS011;59091;47.446;19.148;2024-02-04T12:41:26;0.80;;;0.80;;
71303;SDS011;59091;47.446;19.148;2024-02-04T12:43:53;2.40;;;0.77;;
71303;SDS011;59091;47.446;19.148;2024-02-04T12:46:20;1.15;;;0.88;;
71303;SDS011;59091;47.446;19.148;2024-02-04T12:48:56;0.80;;;0.80;;
71303;SDS011;59091;47.446;19.148;2024-02-04T12:51:25;2.38;;;0.93;;
71303;SDS011;59091;47.446;19.148;2024-02-04T12:54:12;0.73;;;0.73;;
71303;SDS011;59091;47.446;19.148;2024-02-04T12:59:32;1.30;;;1.02;;
71303;SDS011;59091;47.446;19.148;2024-02-04T13:02:02;0.90;;;0.90;;
71303;SDS011;59091;47.446;19.148;2024-02-04T13:04:35;0.90;;;0.90;;
71303;SDS011;59091;47.446;19.148;2024-02-04T13:07:06;2.42;;;1.00;;
71303;SDS011;59091;47.446;19.148;2024-02-04T13:09:32;0.90;;;0.90;;
71303;SDS011;59091;47.446;19.148;2024-02-04T13:12:07;1.00;;;0.85;;
71303;SDS011;59091;47.446;19.148;2024-02-04T13:14:37;0.80;;;0.80;;
71303;SDS011;59091;47.446;19.148;2024-02-04T13:17:03;1.85;;;0.95;;
71303;SDS011;59091;47.446;19.148;2024-02-04T13:19:33;0.80;;;0.80;;
71303;SDS011;59091;47.446;19.148;2024-02-04T13:21:59;1.25;;;1.00;;
71303;SDS011;59091;47.446;19.148;2024-02-04T13:24:25;1.00;;;1.00;;
71303;SDS011;59091;47.446;19.148;2024-02-04T13:26:50;0.90;;;0.90;;
71303;SDS011;59091;47.446;19.148;2024-02-04T13:29:16;0.82;;;0.82;;
71303;SDS011;59091;47.446;19.148;2024-02-04T13:31:41;1.65;;;1.00;;
71303;SDS011;59091;47.446;19.148;2024-02-04T13:34:07;0.90;;;0.90;;
71303;SDS011;59091;47.446;19.148;2024-02-04T13:36:32;1.38;;;0.90;;
71303;SDS011;59091;47.446;19.148;2024-02-04T13:38:58;1.45;;;1.27;;
71303;SDS011;59091;47.446;19.148;2024-02-04T13:41:23;2.38;;;1.13;;
71303;SDS011;59091;47.446;19.148;2024-02-04T13:43:49;0.80;;;0.80;;
71303;SDS011;59091;47.446;19.148;2024-02-04T13:46:15;5.55;;;0.80;;
71303;SDS011;59091;47.446;19.148;2024-02-04T13:48:41;1.02;;;0.93;;
71303;SDS011;59091;47.446;19.148;2024-02-04T13:51:06;1.30;;;0.98;;
71303;SDS011;59091;47.446;19.148;2024-02-04T13:53:32;0.80;;;0.80;;
71303;SDS011;59091;47.446;19.148;2024-02-04T13:55:59;0.90;;;0.90;;
71303;SDS011;59091;47.446;19.148;2024-02-04T13:58:25;2.42;;;0.70;;
71303;SDS011;59091;47.446;19.148;2024-02-04T14:00:51;0.98;;;0.80;;
71303;SDS011;59091;47.446;19.148;2024-02-04T14:03:17;0.73;;;0.73;;
71303;SDS011;59091;47.446;19.148;2024-02-04T14:05:42;2.80;;;0.80;;
71303;SDS011;59091;47.446;19.148;2024-02-04T14:08:07;0.75;;;0.75;;
71303;SDS011;59091;47.446;19.148;2024-02-04T14:10:33;0.70;;;0.70;;
71303;SDS011;59091;47.446;19.148;2024-02-04T14:12:58;1.48;;;0.68;;
71303;SDS011;59091;47.446;19.148;2024-02-04T14:15:24;0.85;;;0.80;;
71303;SDS011;59091;47.446;19.148;2024-02-04T14:17:49;0.93;;;0.70;;
71303;SDS011;59091;47.446;19.148;2024-02-04T14:20:14;1.52;;;1.00;;
71303;SDS011;59091;47.446;19.148;2024-02-04T14:22:40;1.05;;;0.95;;
71303;SDS011;59091;47.446;19.148;2024-02-04T14:25:06;1.85;;;0.82;;
71303;SDS011;59091;47.446;19.148;2024-02-04T14:27:32;1.00;;;1.00;;
71303;SDS011;59091;47.446;19.148;2024-02-04T14:29:57;0.98;;;0.88;;
71303;SDS011;59091;47.446;19.148;2024-02-04T14:32:22;0.80;;;0.80;;
71303;SDS011;59091;47.446;19.148;2024-02-04T14:34:48;1.10;;;1.10;;
71303;SDS011;59091;47.446;19.148;2024-02-04T14:37:14;2.45;;;0.98;;
71303;SDS011;59091;47.446;19.148;2024-02-04T14:39:40;0.80;;;0.80;;
71303;SDS011;59091;47.446;19.148;2024-02-04T14:42:06;0.70;;;0.70;;
71303;SDS011;59091;47.446;19.148;2024-02-04T14:44:34;0.80;;;0.80;;